Terminal Aerodrome Forecast
Issued by NWS

Home | Current Version | Previous Version | Text Only | Print | Product List | Glossary On
Versions: 1 2 3 4 5 6 7 8 9 10 11 12 13 14 15 16 17
000
FTUS45 KFGZ 031120
TAFPRC
TAF
KPRC 031120Z 0312/0412 VRB05KT P6SM SCT150
      TEMPO 0312/0314 TSRA BKN090CB
     FM031930 22009KT P6SM SCT080 SCT100
     FM040600 20006KT P6SM SCT080 BKN200=

USA.gov is the U.S. government's official web portal to all federal, state and local government web resources and services.